createdAt,value
2019-04-22T00:01:04.788Z,26.03
2019-04-22T00:03:38.641Z,26.33
2019-04-22T00:06:27.400Z,25.33
2019-04-22T00:08:56.160Z,24.70
2019-04-22T00:11:31.907Z,26.00
2019-04-22T00:13:57.103Z,26.00
2019-04-22T00:16:33.202Z,24.10
2019-04-22T00:21:33.317Z,23.93
2019-04-22T00:24:01.197Z,23.50
2019-04-22T00:26:33.556Z,23.53
2019-04-22T00:29:20.735Z,24.17
2019-04-22T00:31:40.671Z,23.87
2019-04-22T00:34:14.341Z,21.83
2019-04-22T00:36:44.888Z,22.50
2019-04-22T00:39:16.379Z,22.63
2019-04-22T00:41:43.823Z,24.13
2019-04-22T00:44:19.038Z,22.53
2019-04-22T00:46:46.447Z,23.97
2019-04-22T00:49:58.283Z,22.40
2019-04-22T00:52:07.724Z,21.70
2019-04-22T00:54:13.655Z,20.53
2019-04-22T00:56:44.056Z,21.20
2019-04-22T00:59:13.903Z,21.03
2019-04-22T01:01:46.721Z,20.17
2019-04-22T01:04:25.647Z,19.83
2019-04-22T01:06:49.871Z,18.40
2019-04-22T01:09:17.119Z,18.63
2019-04-22T01:11:44.619Z,18.03
2019-04-22T01:14:13.109Z,18.27
2019-04-22T01:16:48.580Z,17.70
2019-04-22T01:19:16.639Z,17.80
2019-04-22T01:21:45.067Z,17.33
2019-04-22T01:24:15.753Z,17.33
2019-04-22T01:26:43.471Z,17.13
2019-04-22T01:29:11.004Z,17.00
2019-04-22T01:31:31.467Z,16.67
2019-04-22T01:34:10.335Z,15.57
2019-04-22T01:36:48.379Z,15.07
2019-04-22T01:39:21.282Z,16.47
2019-04-22T01:44:29.569Z,16.30
2019-04-22T01:47:00.356Z,14.67
2019-04-22T01:49:27.620Z,15.40
2019-04-22T01:52:11.518Z,13.83
2019-04-22T01:54:35.158Z,14.33
2019-04-22T01:57:02.178Z,13.40
2019-04-22T01:59:20.101Z,14.23
2019-04-22T02:01:56.144Z,13.77
2019-04-22T02:04:33.561Z,14.00
2019-04-22T02:07:07.468Z,14.07
2019-04-22T02:09:38.410Z,13.70
2019-04-22T02:12:00.198Z,14.10
2019-04-22T02:14:34.122Z,13.13
2019-04-22T02:17:01.306Z,13.50
2019-04-22T02:19:36.117Z,14.07
2019-04-22T02:22:02.174Z,13.77
2019-04-22T02:24:33.308Z,13.07
2019-04-22T02:27:09.158Z,15.00
2019-04-22T02:29:37.312Z,15.07
2019-04-22T02:32:17.149Z,14.17
2019-04-22T02:34:40.026Z,13.50
2019-04-22T02:42:10.544Z,12.53
2019-04-22T02:44:37.403Z,12.43
2019-04-22T02:50:00.227Z,11.87
2019-04-22T02:52:11.627Z,11.90
2019-04-22T02:59:39.567Z,11.20
2019-04-22T03:02:14.271Z,11.93
2019-04-22T03:04:37.222Z,12.03
2019-04-22T03:07:05.504Z,10.93
2019-04-22T03:09:50.728Z,10.37
2019-04-22T03:12:27.114Z,10.27
2019-04-22T03:14:40.377Z,10.37
2019-04-22T03:17:16.249Z,10.43
2019-04-22T03:27:21.910Z,9.47
2019-04-22T03:37:48.812Z,10.30
2019-04-22T03:40:16.105Z,10.10
2019-04-22T03:42:45.775Z,10.57
2019-04-22T03:45:19.238Z,10.17
2019-04-22T03:50:24.352Z,10.67
2019-04-22T03:52:44.466Z,10.90
2019-04-22T03:55:09.273Z,10.07
2019-04-22T03:57:56.061Z,11.70
2019-04-22T04:05:29.109Z,12.00
2019-04-22T04:07:48.081Z,12.77
2019-04-22T04:10:22.638Z,11.07
2019-04-22T04:30:18.994Z,11.10
2019-04-22T04:35:23.495Z,10.53
2019-04-22T04:37:55.769Z,9.60
2019-04-22T04:40:20.664Z,10.47
2019-04-22T04:50:20.578Z,11.17
2019-04-22T04:53:01.481Z,10.17
2019-04-22T04:55:26.699Z,9.43
2019-04-22T05:05:16.683Z,9.03
2019-04-22T05:15:18.594Z,9.07
2019-04-22T05:17:55.056Z,9.23
2019-04-22T05:20:26.951Z,9.47
2019-04-22T05:22:44.512Z,9.70
2019-04-22T05:25:19.045Z,9.83
2019-04-22T05:33:01.470Z,8.67
2019-04-22T05:37:50.633Z,9.10
2019-04-22T05:40:22.075Z,8.77
2019-04-22T05:42:46.289Z,9.10
2019-04-22T05:45:17.317Z,9.23
2019-04-22T05:47:46.186Z,8.53
2019-04-22T05:52:51.340Z,8.67
2019-04-22T05:55:22.447Z,8.33
2019-04-22T05:57:51.006Z,8.13
2019-04-22T06:00:36.973Z,8.13
2019-04-22T06:02:56.617Z,9.07
2019-04-22T06:05:24.734Z,8.23
2019-04-22T06:07:53.816Z,8.87
2019-04-22T06:10:31.094Z,9.53
2019-04-22T06:12:56.483Z,9.17
2019-04-22T06:15:33.125Z,9.13
2019-04-22T06:18:12.385Z,8.17
2019-04-22T06:20:32.658Z,8.40
2019-04-22T06:23:04.524Z,8.50
2019-04-22T06:25:55.018Z,8.23
2019-04-22T06:28:06.471Z,8.40
2019-04-22T06:30:35.988Z,9.40
2019-04-22T06:33:13.301Z,8.70
2019-04-22T06:35:36.533Z,8.90
2019-04-22T06:38:30.507Z,8.00
2019-04-22T06:40:41.680Z,8.67
2019-04-22T06:45:34.795Z,7.90
2019-04-22T06:48:16.151Z,8.00
2019-04-22T06:53:09.913Z,7.80
2019-04-22T06:55:41.344Z,8.37
2019-04-22T06:58:13.465Z,8.00
2019-04-22T07:05:43.829Z,8.57
2019-04-22T07:08:30.485Z,8.37
2019-04-22T07:10:43.426Z,8.73
2019-04-22T07:13:11.637Z,8.40
2019-04-22T07:18:18.427Z,8.43
2019-04-22T07:20:44.229Z,8.87
2019-04-22T07:23:13.848Z,9.53
2019-04-22T07:25:40.800Z,7.93
2019-04-22T07:31:02.360Z,7.97
2019-04-22T07:38:20.572Z,7.70
2019-04-22T07:40:55.421Z,9.00
2019-04-22T07:43:22.675Z,7.53
2019-04-22T07:46:09.538Z,8.67
2019-04-22T07:48:27.929Z,7.73
2019-04-22T07:51:02.517Z,8.47
2019-04-22T07:53:10.048Z,7.83
2019-04-22T07:55:47.043Z,8.00
2019-04-22T07:58:18.479Z,7.97
2019-04-22T08:00:43.780Z,7.30
2019-04-22T08:03:22.672Z,7.50
2019-04-22T08:05:58.874Z,7.97
2019-04-22T08:08:26.425Z,6.93
2019-04-22T08:10:48.508Z,7.57
2019-04-22T08:13:17.061Z,7.63
2019-04-22T08:15:54.228Z,7.63
2019-04-22T08:18:22.092Z,6.97
2019-04-22T08:20:49.774Z,6.60
2019-04-22T08:23:23.874Z,6.97
2019-04-22T08:25:49.520Z,7.13
2019-04-22T08:28:26.239Z,7.37
2019-04-22T08:30:56.821Z,7.13
2019-04-22T08:36:06.453Z,7.57
2019-04-22T08:38:33.747Z,6.93
2019-04-22T08:41:21.505Z,6.23
2019-04-22T08:46:17.030Z,6.97
2019-04-22T08:48:44.264Z,7.17
2019-04-22T08:51:19.637Z,6.70
2019-04-22T08:53:49.939Z,6.80
2019-04-22T08:56:23.522Z,6.73
2019-04-22T08:58:50.764Z,6.37
2019-04-22T09:01:21.221Z,6.70
2019-04-22T09:03:47.142Z,6.33
2019-04-22T09:06:27.714Z,5.73
2019-04-22T09:08:50.455Z,6.60
2019-04-22T09:11:20.148Z,6.70
2019-04-22T09:13:50.720Z,6.27
2019-04-22T09:16:19.332Z,5.97
2019-04-22T09:18:49.354Z,6.23
2019-04-22T09:21:26.466Z,6.17
2019-04-22T09:23:54.006Z,6.33
2019-04-22T09:26:15.550Z,6.60
2019-04-22T09:28:54.499Z,6.00
2019-04-22T09:31:19.548Z,6.67
2019-04-22T09:33:43.389Z,6.50
2019-04-22T09:36:22.392Z,5.67
2019-04-22T09:38:47.299Z,5.50
2019-04-22T09:41:24.919Z,5.77
2019-04-22T09:43:53.629Z,5.93
2019-04-22T09:46:23.966Z,5.50
2019-04-22T09:48:51.890Z,5.60
2019-04-22T09:51:18.621Z,5.53
2019-04-22T09:53:54.870Z,4.93
2019-04-22T09:56:29.861Z,5.80
2019-04-22T09:58:58.553Z,5.77
2019-04-22T10:04:00.828Z,5.87
2019-04-22T10:06:29.450Z,5.57
2019-04-22T10:09:20.970Z,5.70
2019-04-22T10:16:31.349Z,5.70
2019-04-22T10:18:59.109Z,6.17
2019-04-22T10:21:37.256Z,5.40
2019-04-22T10:23:59.610Z,5.53
2019-04-22T10:26:33.442Z,6.13
2019-04-22T10:33:49.732Z,5.80
2019-04-22T10:36:07.895Z,6.50
2019-04-22T10:38:36.785Z,5.43
2019-04-22T10:41:05.469Z,5.47
2019-04-22T10:43:34.958Z,5.10
2019-04-22T10:46:04.090Z,5.23
2019-04-22T10:48:36.587Z,5.33
2019-04-22T10:51:04.678Z,5.57
2019-04-22T10:53:33.473Z,5.33
2019-04-22T10:56:03.218Z,5.50
2019-04-22T10:58:34.828Z,5.50
2019-04-22T11:01:03.584Z,5.77
2019-04-22T11:03:33.170Z,5.30
2019-04-22T11:06:03.283Z,5.97
2019-04-22T11:08:40.701Z,5.53
2019-04-22T11:11:18.044Z,5.50
2019-04-22T11:13:33.781Z,5.50
2019-04-22T11:16:03.486Z,5.63
2019-04-22T11:18:33.642Z,5.40
2019-04-22T11:21:02.397Z,5.90
2019-04-22T11:23:32.363Z,6.13
2019-04-22T11:26:01.789Z,5.37
2019-04-22T11:28:31.838Z,5.40
2019-04-22T11:31:00.835Z,6.00
2019-04-22T11:33:30.343Z,5.40
2019-04-22T11:35:59.963Z,5.40
2019-04-22T11:38:28.882Z,5.23
2019-04-22T11:41:01.127Z,5.17
2019-04-22T11:43:28.493Z,4.73
2019-04-22T11:45:57.536Z,5.40
2019-04-22T11:48:27.038Z,5.40
2019-04-22T11:50:55.810Z,4.90
2019-04-22T11:53:24.856Z,5.80
2019-04-22T11:55:54.885Z,5.13
2019-04-22T11:58:24.631Z,4.83
2019-04-22T12:00:55.149Z,4.50
2019-04-22T12:03:25.139Z,5.20
2019-04-22T12:05:55.452Z,5.57
2019-04-22T12:08:25.015Z,5.27
2019-04-22T12:11:00.309Z,5.60
2019-04-22T12:13:26.198Z,5.23
2019-04-22T12:15:55.452Z,5.10
2019-04-22T12:18:24.934Z,5.30
2019-04-22T12:20:55.099Z,4.83
2019-04-22T12:23:25.202Z,5.07
2019-04-22T12:26:01.257Z,5.70
2019-04-22T12:28:27.118Z,4.60
2019-04-22T12:30:55.778Z,4.50
2019-04-22T12:33:25.270Z,5.00
2019-04-22T12:35:54.752Z,3.93
2019-04-22T12:38:24.077Z,4.80
2019-04-22T12:40:58.459Z,4.77
2019-04-22T12:43:25.689Z,4.20
2019-04-22T12:45:54.314Z,4.77
2019-04-22T12:48:23.280Z,4.13
2019-04-22T12:50:54.240Z,4.17
2019-04-22T12:53:25.737Z,4.07
2019-04-22T12:55:55.234Z,4.80
2019-04-22T12:58:23.440Z,4.20
2019-04-22T13:00:52.839Z,4.17
2019-04-22T13:03:22.300Z,4.10
2019-04-22T13:05:51.462Z,4.50
2019-04-22T13:08:20.175Z,4.30
2019-04-22T13:10:55.556Z,4.00
2019-04-22T13:13:19.024Z,4.20
2019-04-22T13:15:48.928Z,4.47
2019-04-22T13:18:27.663Z,4.23
2019-04-22T13:20:48.637Z,3.47
2019-04-22T13:23:18.020Z,3.37
2019-04-22T13:25:47.237Z,3.43
2019-04-22T13:28:15.880Z,3.37
2019-04-22T13:30:44.519Z,3.50
2019-04-22T13:33:14.680Z,3.80
2019-04-22T13:35:45.722Z,4.00
2019-04-22T13:38:15.226Z,3.30
2019-04-22T13:40:57.903Z,3.67
2019-04-22T13:43:14.444Z,3.20
2019-04-22T13:45:43.700Z,3.83
2019-04-22T13:48:31.156Z,3.37
2019-04-22T13:51:18.622Z,3.20
2019-04-22T13:56:08.767Z,3.37
2019-04-22T13:58:31.307Z,2.93
2019-04-22T14:00:46.825Z,3.83
2019-04-22T14:03:35.652Z,2.70
2019-04-22T14:06:05.185Z,3.20
2019-04-22T14:08:35.268Z,3.27
2019-04-22T14:11:18.038Z,3.43
2019-04-22T14:13:34.259Z,2.67
2019-04-22T14:16:06.709Z,2.90
2019-04-22T14:18:36.935Z,2.60
2019-04-22T14:21:06.863Z,3.33
2019-04-22T14:23:35.536Z,3.07
2019-04-22T14:26:05.224Z,3.10
2019-04-22T14:28:35.443Z,2.93
2019-04-22T14:31:04.404Z,2.60
2019-04-22T14:33:34.161Z,3.20
2019-04-22T14:36:05.725Z,2.57
2019-04-22T14:38:34.725Z,2.20
2019-04-22T14:41:03.732Z,2.50
2019-04-22T14:43:59.975Z,2.53
2019-04-22T14:46:32.031Z,2.13
2019-04-22T14:48:57.653Z,2.00
2019-04-22T14:51:20.937Z,2.23
2019-04-22T14:53:52.593Z,2.30
2019-04-22T14:56:04.360Z,2.53
2019-04-22T14:58:33.097Z,2.80
2019-04-22T15:01:03.215Z,2.50
2019-04-22T15:03:33.129Z,3.33
2019-04-22T15:06:02.247Z,2.87
2019-04-22T15:08:31.216Z,2.40
2019-04-22T15:11:00.158Z,2.67
2019-04-22T15:13:29.441Z,2.43
2019-04-22T15:16:03.039Z,2.20
2019-04-22T15:18:36.089Z,2.20
2019-04-22T15:21:06.910Z,2.30
2019-04-22T15:23:35.742Z,2.30
2019-04-22T15:26:04.649Z,2.53
2019-04-22T15:28:33.452Z,2.10
2019-04-22T15:31:03.471Z,2.30
2019-04-22T15:33:33.093Z,1.90
2019-04-22T15:36:01.800Z,2.07
2019-04-22T15:38:30.386Z,2.17
2019-04-22T15:40:58.955Z,1.90
2019-04-22T15:43:30.890Z,2.23
2019-04-22T15:46:00.471Z,2.10
2019-04-22T15:48:29.209Z,2.10
2019-04-22T15:50:58.450Z,2.60
2019-04-22T15:53:27.565Z,2.30
2019-04-22T15:55:58.787Z,2.20
2019-04-22T15:58:28.043Z,2.67
2019-04-22T16:01:10.747Z,3.17
2019-04-22T16:03:32.275Z,3.40
2019-04-22T16:06:02.138Z,3.50
2019-04-22T16:08:34.228Z,3.70
2019-04-22T16:11:04.138Z,3.93
2019-04-22T16:13:36.126Z,4.20
2019-04-22T16:16:02.981Z,3.93
2019-04-22T16:18:32.576Z,3.53
2019-04-22T16:21:02.760Z,3.87
2019-04-22T16:23:34.104Z,3.97
2019-04-22T16:26:07.600Z,4.00
2019-04-22T16:28:37.640Z,3.70
2019-04-22T16:31:07.375Z,4.20
2019-04-22T16:33:39.730Z,4.03
2019-04-22T16:36:07.238Z,3.37
2019-04-22T16:38:36.913Z,4.03
2019-04-22T16:41:06.586Z,4.13
2019-04-22T16:43:36.497Z,4.07
2019-04-22T16:46:05.827Z,4.10
2019-04-22T16:48:35.678Z,3.93
2019-04-22T16:51:04.582Z,3.23
2019-04-22T16:53:34.905Z,3.67
2019-04-22T16:56:04.807Z,3.83
2019-04-22T16:58:34.719Z,4.00
2019-04-22T17:01:05.122Z,3.50
2019-04-22T17:03:52.393Z,4.03
2019-04-22T17:06:23.442Z,3.57
2019-04-22T17:08:52.904Z,3.47
2019-04-22T17:11:25.473Z,3.60
2019-04-22T17:13:55.194Z,3.80
2019-04-22T17:16:26.237Z,3.40
2019-04-22T17:18:56.437Z,3.63
2019-04-22T17:21:25.856Z,3.20
2019-04-22T17:23:55.971Z,3.40
2019-04-22T17:26:24.561Z,3.30
2019-04-22T17:28:53.463Z,3.60
2019-04-22T17:31:24.817Z,3.63
2019-04-22T17:33:54.938Z,3.37
2019-04-22T17:36:24.309Z,3.67
2019-04-22T17:39:00.519Z,3.20
2019-04-22T17:41:40.513Z,3.63
2019-04-22T17:44:19.140Z,3.20
2019-04-22T17:46:41.790Z,3.60
2019-04-22T17:49:34.039Z,3.13
2019-04-22T17:52:16.842Z,3.60
2019-04-22T17:54:48.197Z,2.70
2019-04-22T17:57:24.116Z,3.20
2019-04-22T17:59:56.805Z,3.40
2019-04-22T18:02:22.544Z,3.13
2019-04-22T18:04:40.347Z,2.87
2019-04-22T18:07:31.494Z,2.87
2019-04-22T18:15:14.657Z,3.20
2019-04-22T18:17:30.509Z,3.10
2019-04-22T18:19:53.124Z,2.97
2019-04-22T18:22:21.751Z,3.30
2019-04-22T18:24:53.086Z,2.80
2019-04-22T18:29:55.862Z,2.93
2019-04-22T18:32:20.287Z,2.90
2019-04-22T18:34:53.220Z,3.30
2019-04-22T18:37:25.185Z,2.93
2019-04-22T18:40:01.906Z,2.50
2019-04-22T18:42:26.811Z,3.07
2019-04-22T18:45:12.653Z,3.20
2019-04-22T18:47:29.458Z,3.30
2019-04-22T18:49:59.259Z,3.40
2019-04-22T18:52:40.205Z,3.37
2019-04-22T18:55:14.706Z,3.27
2019-04-22T18:58:02.607Z,3.27
2019-04-22T19:00:23.454Z,3.50
2019-04-22T19:02:59.367Z,3.23
2019-04-22T19:05:42.663Z,2.87
2019-04-22T19:15:54.281Z,2.73
2019-04-22T19:18:24.204Z,2.77
2019-04-22T19:20:59.431Z,2.73
2019-04-22T19:23:22.687Z,2.67
2019-04-22T19:25:48.639Z,3.03
2019-04-22T19:28:29.202Z,2.73
2019-04-22T19:31:01.590Z,2.60
2019-04-22T19:33:25.052Z,2.80
2019-04-22T19:35:52.003Z,2.87
2019-04-22T19:38:15.664Z,2.40
2019-04-22T19:41:06.870Z,2.40
2019-04-22T19:43:28.653Z,3.00
2019-04-22T19:45:55.403Z,2.90
2019-04-22T19:48:32.940Z,3.00
2019-04-22T19:51:05.840Z,2.47
2019-04-22T19:53:29.707Z,2.47
2019-04-22T19:55:53.799Z,2.80
2019-04-22T19:58:27.764Z,2.77
2019-04-22T20:01:13.463Z,2.70
2019-04-22T20:03:50.843Z,2.40
2019-04-22T20:06:16.554Z,2.73
2019-04-22T20:08:51.005Z,2.30
2019-04-22T20:11:23.193Z,2.37
2019-04-22T20:13:47.997Z,2.40
2019-04-22T20:16:11.513Z,2.50
2019-04-22T20:18:52.009Z,2.30
2019-04-22T20:21:27.011Z,2.57
2019-04-22T20:23:42.056Z,2.67
2019-04-22T20:26:16.192Z,2.30
2019-04-22T20:28:52.716Z,2.20
2019-04-22T20:31:24.605Z,2.37
2019-04-22T20:33:56.085Z,2.33
2019-04-22T20:36:47.550Z,2.30
2019-04-22T20:38:51.096Z,2.30
2019-04-22T20:41:22.802Z,2.40
2019-04-22T20:43:56.553Z,2.30
2019-04-22T20:46:28.433Z,2.60
2019-04-22T20:49:04.975Z,2.40
2019-04-22T20:51:38.503Z,2.60
2019-04-22T20:54:02.137Z,2.33
2019-04-22T20:56:26.729Z,2.40
2019-04-22T20:58:56.079Z,2.20
2019-04-22T21:01:28.372Z,2.50
2019-04-22T21:03:46.928Z,2.37
2019-04-22T21:06:29.366Z,2.60
2019-04-22T21:09:02.233Z,2.60
2019-04-22T21:11:30.138Z,2.53
2019-04-22T21:13:56.100Z,2.67
2019-04-22T21:16:34.655Z,2.77
2019-04-22T21:18:52.250Z,2.50
2019-04-22T21:21:32.164Z,2.83
2019-04-22T21:23:54.445Z,2.60
2019-04-22T21:26:29.089Z,3.03
2019-04-22T21:29:01.201Z,2.73
2019-04-22T21:31:33.296Z,2.63
2019-04-22T21:33:59.454Z,2.60
2019-04-22T21:36:36.625Z,2.70
2019-04-22T21:39:00.826Z,2.80
2019-04-22T21:41:34.097Z,3.50
2019-04-22T21:44:05.569Z,2.90
2019-04-22T21:46:35.328Z,2.70
2019-04-22T21:49:07.457Z,3.03
2019-04-22T21:51:39.989Z,2.93
2019-04-22T21:54:12.242Z,2.97
2019-04-22T21:57:07.508Z,2.97
2019-04-22T21:59:26.883Z,2.80
2019-04-22T22:02:04.510Z,3.07
2019-04-22T22:04:32.149Z,3.03
2019-04-22T22:06:53.070Z,3.10
2019-04-22T22:09:39.142Z,2.73
2019-04-22T22:11:59.360Z,2.90
2019-04-22T22:14:42.555Z,3.20
2019-04-22T22:17:01.330Z,2.80
2019-04-22T22:19:37.757Z,3.53
2019-04-22T22:22:28.063Z,2.73
2019-04-22T22:24:48.296Z,2.67
2019-04-22T22:27:14.642Z,2.77
2019-04-22T22:30:05.500Z,2.60
2019-04-22T22:32:22.008Z,3.07
2019-04-22T22:34:46.492Z,2.47
2019-04-22T22:37:10.788Z,3.07
2019-04-22T22:39:40.457Z,2.50
2019-04-22T22:41:59.574Z,2.83
2019-04-22T22:44:38.020Z,2.50
2019-04-22T22:47:18.230Z,2.60
2019-04-22T22:49:52.857Z,2.20
2019-04-22T22:52:44.856Z,2.60
2019-04-22T22:54:54.099Z,2.53
2019-04-22T22:57:29.308Z,2.80
2019-04-22T22:59:50.054Z,2.60
2019-04-22T23:02:22.344Z,3.07
2019-04-22T23:04:51.162Z,2.60
2019-04-22T23:07:31.727Z,2.97
2019-04-22T23:09:58.613Z,2.60
2019-04-22T23:12:34.741Z,2.50
2019-04-22T23:14:57.626Z,2.50
2019-04-22T23:17:11.761Z,2.50
2019-04-22T23:19:41.970Z,3.10
2019-04-22T23:22:20.603Z,2.53
2019-04-22T23:25:00.238Z,2.80
2019-04-22T23:27:34.636Z,3.43
2019-04-22T23:30:02.449Z,2.80
2019-04-22T23:32:32.990Z,2.60
2019-04-22T23:35:14.709Z,3.17
2019-04-22T23:37:44.689Z,2.50
2019-04-22T23:40:24.330Z,2.67
2019-04-22T23:42:53.839Z,2.83
2019-04-22T23:45:25.081Z,2.87
2019-04-22T23:47:41.189Z,2.93
2019-04-22T23:50:19.687Z,3.30
2019-04-22T23:52:54.623Z,3.53
2019-04-22T23:55:27.044Z,2.70
2019-04-22T23:58:19.126Z,2.27
